sensor_id;sensor_type;location;lat;lon;timestamp;temperature;humidity
14349;DHT22;7258;50.376;8.742;2023-08-01T00:00:19;16.20;99.90
14349;DHT22;7258;50.376;8.742;2023-08-01T00:02:22;16.20;99.90
14349;DHT22;7258;50.376;8.742;2023-08-01T00:04:24;16.20;99.90
14349;DHT22;7258;50.376;8.742;2023-08-01T00:06:29;16.20;99.90
14349;DHT22;7258;50.376;8.742;2023-08-01T00:08:31;16.20;99.90
14349;DHT22;7258;50.376;8.742;2023-08-01T00:10:34;16.20;99.90
14349;DHT22;7258;50.376;8.742;2023-08-01T00:12:36;16.20;99.90
14349;DHT22;7258;50.376;8.742;2023-08-01T00:14:39;16.20;99.90
14349;DHT22;7258;50.376;8.742;2023-08-01T00:16:42;16.20;99.90
14349;DHT22;7258;50.376;8.742;2023-08-01T00:18:45;16.20;99.90
14349;DHT22;7258;50.376;8.742;2023-08-01T00:20:48;16.20;99.90
14349;DHT22;7258;50.376;8.742;2023-08-01T00:22:57;16.20;99.90
14349;DHT22;7258;50.376;8.742;2023-08-01T00:25:01;16.20;99.90
14349;DHT22;7258;50.376;8.742;2023-08-01T00:27:05;16.20;99.90
14349;DHT22;7258;50.376;8.742;2023-08-01T00:29:10;16.20;99.90
14349;DHT22;7258;50.376;8.742;2023-08-01T00:31:13;16.20;99.90
14349;DHT22;7258;50.376;8.742;2023-08-01T00:33:16;16.20;99.90
14349;DHT22;7258;50.376;8.742;2023-08-01T00:35:19;16.20;99.90
14349;DHT22;7258;50.376;8.742;2023-08-01T00:37:22;16.20;99.90
14349;DHT22;7258;50.376;8.742;2023-08-01T00:39:27;16.20;99.90
14349;DHT22;7258;50.376;8.742;2023-08-01T00:41:30;16.20;99.90
14349;DHT22;7258;50.376;8.742;2023-08-01T00:43:33;16.20;99.90
14349;DHT22;7258;50.376;8.742;2023-08-01T00:45:36;16.20;99.90
14349;DHT22;7258;50.376;8.742;2023-08-01T00:47:39;16.20;99.90
14349;DHT22;7258;50.376;8.742;2023-08-01T00:49:42;16.20;99.90
14349;DHT22;7258;50.376;8.742;2023-08-01T00:51:45;16.20;99.90
14349;DHT22;7258;50.376;8.742;2023-08-01T00:53:48;16.20;99.90
14349;DHT22;7258;50.376;8.742;2023-08-01T00:55:52;16.20;99.90
14349;DHT22;7258;50.376;8.742;2023-08-01T00:57:56;16.20;99.90
14349;DHT22;7258;50.376;8.742;2023-08-01T00:59:59;16.30;99.90
14349;DHT22;7258;50.376;8.742;2023-08-01T01:02:20;16.30;99.90
14349;DHT22;7258;50.376;8.742;2023-08-01T01:04:23;16.30;99.90
14349;DHT22;7258;50.376;8.742;2023-08-01T01:06:32;16.30;99.90
14349;DHT22;7258;50.376;8.742;2023-08-01T01:08:35;16.30;99.90
14349;DHT22;7258;50.376;8.742;2023-08-01T01:10:38;16.30;99.90
14349;DHT22;7258;50.376;8.742;2023-08-01T01:12:42;16.30;99.90
14349;DHT22;7258;50.376;8.742;2023-08-01T01:14:45;16.30;99.90
14349;DHT22;7258;50.376;8.742;2023-08-01T01:16:48;16.30;99.90
14349;DHT22;7258;50.376;8.742;2023-08-01T01:18:53;16.30;99.90
14349;DHT22;7258;50.376;8.742;2023-08-01T01:20:58;16.30;99.90
14349;DHT22;7258;50.376;8.742;2023-08-01T01:23:04;16.30;99.90
14349;DHT22;7258;50.376;8.742;2023-08-01T01:25:08;16.30;99.90
14349;DHT22;7258;50.376;8.742;2023-08-01T01:27:12;16.30;99.90
14349;DHT22;7258;50.376;8.742;2023-08-01T01:29:16;16.30;99.90
14349;DHT22;7258;50.376;8.742;2023-08-01T01:31:19;16.30;99.90
14349;DHT22;7258;50.376;8.742;2023-08-01T01:33:22;16.30;99.90
14349;DHT22;7258;50.376;8.742;2023-08-01T01:35:25;16.40;99.90
14349;DHT22;7258;50.376;8.742;2023-08-01T01:37:30;16.40;99.90
14349;DHT22;7258;50.376;8.742;2023-08-01T01:39:33;16.40;99.90
14349;DHT22;7258;50.376;8.742;2023-08-01T01:41:35;16.40;99.90
14349;DHT22;7258;50.376;8.742;2023-08-01T01:43:37;16.40;99.90
14349;DHT22;7258;50.376;8.742;2023-08-01T01:45:40;16.40;99.90
14349;DHT22;7258;50.376;8.742;2023-08-01T01:47:43;16.40;99.90
14349;DHT22;7258;50.376;8.742;2023-08-01T01:49:46;16.40;99.90
14349;DHT22;7258;50.376;8.742;2023-08-01T01:51:49;16.40;99.90
14349;DHT22;7258;50.376;8.742;2023-08-01T01:53:59;16.40;99.90
14349;DHT22;7258;50.376;8.742;2023-08-01T01:56:02;16.40;99.90
14349;DHT22;7258;50.376;8.742;2023-08-01T01:58:05;16.40;99.90
14349;DHT22;7258;50.376;8.742;2023-08-01T02:00:09;16.40;99.90
14349;DHT22;7258;50.376;8.742;2023-08-01T02:02:12;16.40;99.90
14349;DHT22;7258;50.376;8.742;2023-08-01T02:04:15;16.40;99.90
14349;DHT22;7258;50.376;8.742;2023-08-01T02:06:18;16.40;99.90
14349;DHT22;7258;50.376;8.742;2023-08-01T02:08:20;16.40;99.90
14349;DHT22;7258;50.376;8.742;2023-08-01T02:10:24;16.40;99.90
14349;DHT22;7258;50.376;8.742;2023-08-01T02:12:27;16.40;99.90
14349;DHT22;7258;50.376;8.742;2023-08-01T02:14:33;16.40;99.90
14349;DHT22;7258;50.376;8.742;2023-08-01T02:16:35;16.40;99.90
14349;DHT22;7258;50.376;8.742;2023-08-01T02:18:38;16.40;99.90
14349;DHT22;7258;50.376;8.742;2023-08-01T02:20:41;16.40;99.90
14349;DHT22;7258;50.376;8.742;2023-08-01T02:22:46;16.40;99.90
14349;DHT22;7258;50.376;8.742;2023-08-01T02:24:49;16.40;99.90
14349;DHT22;7258;50.376;8.742;2023-08-01T02:26:53;16.40;99.90
14349;DHT22;7258;50.376;8.742;2023-08-01T02:29:09;16.40;99.90
14349;DHT22;7258;50.376;8.742;2023-08-01T02:31:45;16.40;99.90
14349;DHT22;7258;50.376;8.742;2023-08-01T02:34:10;16.50;99.90
14349;DHT22;7258;50.376;8.742;2023-08-01T02:36:36;16.50;99.90
14349;DHT22;7258;50.376;8.742;2023-08-01T02:39:02;16.50;99.90
14349;DHT22;7258;50.376;8.742;2023-08-01T02:41:14;16.50;99.90
14349;DHT22;7258;50.376;8.742;2023-08-01T02:43:20;16.50;99.90
14349;DHT22;7258;50.376;8.742;2023-08-01T02:45:25;16.50;99.90
14349;DHT22;7258;50.376;8.742;2023-08-01T02:50:13;16.50;99.90
14349;DHT22;7258;50.376;8.742;2023-08-01T02:53:04;16.50;99.90
14349;DHT22;7258;50.376;8.742;2023-08-01T02:55:26;16.50;99.90
14349;DHT22;7258;50.376;8.742;2023-08-01T02:57:47;16.50;99.90
14349;DHT22;7258;50.376;8.742;2023-08-01T03:00:03;16.50;99.90
14349;DHT22;7258;50.376;8.742;2023-08-01T03:03:09;16.50;99.90
14349;DHT22;7258;50.376;8.742;2023-08-01T03:05:52;16.50;99.90
14349;DHT22;7258;50.376;8.742;2023-08-01T03:08:11;16.50;99.90
14349;DHT22;7258;50.376;8.742;2023-08-01T03:10:31;16.50;99.90
14349;DHT22;7258;50.376;8.742;2023-08-01T03:12:39;16.50;99.90
14349;DHT22;7258;50.376;8.742;2023-08-01T03:14:44;16.60;99.90
14349;DHT22;7258;50.376;8.742;2023-08-01T03:17:16;16.50;99.90
14349;DHT22;7258;50.376;8.742;2023-08-01T03:19:26;16.50;99.90
14349;DHT22;7258;50.376;8.742;2023-08-01T03:22:00;16.50;99.90
14349;DHT22;7258;50.376;8.742;2023-08-01T03:24:11;16.50;99.90
14349;DHT22;7258;50.376;8.742;2023-08-01T03:26:31;16.50;99.90
14349;DHT22;7258;50.376;8.742;2023-08-01T03:28:34;16.50;99.90
14349;DHT22;7258;50.376;8.742;2023-08-01T03:30:51;16.50;99.90
14349;DHT22;7258;50.376;8.742;2023-08-01T03:32:56;16.50;99.90
14349;DHT22;7258;50.376;8.742;2023-08-01T03:34:59;16.50;99.90
14349;DHT22;7258;50.376;8.742;2023-08-01T03:37:03;16.50;99.90
14349;DHT22;7258;50.376;8.742;2023-08-01T03:39:06;16.50;99.90
14349;DHT22;7258;50.376;8.742;2023-08-01T03:41:11;16.60;99.90
14349;DHT22;7258;50.376;8.742;2023-08-01T03:43:14;16.60;99.90
14349;DHT22;7258;50.376;8.742;2023-08-01T03:45:17;16.60;99.90
14349;DHT22;7258;50.376;8.742;2023-08-01T03:47:20;16.50;99.90
14349;DHT22;7258;50.376;8.742;2023-08-01T03:49:24;16.60;99.90
14349;DHT22;7258;50.376;8.742;2023-08-01T03:51:27;16.60;99.90
14349;DHT22;7258;50.376;8.742;2023-08-01T03:53:30;16.50;99.90
14349;DHT22;7258;50.376;8.742;2023-08-01T03:55:33;16.60;99.90
14349;DHT22;7258;50.376;8.742;2023-08-01T03:57:36;16.60;99.90
14349;DHT22;7258;50.376;8.742;2023-08-01T03:59:40;16.60;99.90
14349;DHT22;7258;50.376;8.742;2023-08-01T04:01:43;16.60;99.90
14349;DHT22;7258;50.376;8.742;2023-08-01T04:03:46;16.60;99.90
14349;DHT22;7258;50.376;8.742;2023-08-01T04:05:51;16.60;99.90
14349;DHT22;7258;50.376;8.742;2023-08-01T04:07:54;16.60;99.90
14349;DHT22;7258;50.376;8.742;2023-08-01T04:09:57;16.60;99.90
14349;DHT22;7258;50.376;8.742;2023-08-01T04:12:00;16.60;99.90
14349;DHT22;7258;50.376;8.742;2023-08-01T04:14:02;16.60;99.90
14349;DHT22;7258;50.376;8.742;2023-08-01T04:16:05;16.60;99.90
14349;DHT22;7258;50.376;8.742;2023-08-01T04:18:08;16.60;99.90
14349;DHT22;7258;50.376;8.742;2023-08-01T04:20:11;16.60;99.90
14349;DHT22;7258;50.376;8.742;2023-08-01T04:22:16;16.60;99.90
14349;DHT22;7258;50.376;8.742;2023-08-01T04:24:18;16.60;99.90
14349;DHT22;7258;50.376;8.742;2023-08-01T04:26:21;16.60;99.90
14349;DHT22;7258;50.376;8.742;2023-08-01T04:28:24;16.60;99.90
14349;DHT22;7258;50.376;8.742;2023-08-01T04:30:27;16.60;99.90
14349;DHT22;7258;50.376;8.742;2023-08-01T04:32:34;16.60;99.90
14349;DHT22;7258;50.376;8.742;2023-08-01T04:34:38;16.70;99.90
14349;DHT22;7258;50.376;8.742;2023-08-01T04:36:40;16.60;99.90
14349;DHT22;7258;50.376;8.742;2023-08-01T04:38:45;16.60;99.90
14349;DHT22;7258;50.376;8.742;2023-08-01T04:40:48;16.60;99.90
14349;DHT22;7258;50.376;8.742;2023-08-01T04:42:51;16.60;99.90
14349;DHT22;7258;50.376;8.742;2023-08-01T04:44:54;16.60;99.90
14349;DHT22;7258;50.376;8.742;2023-08-01T04:46:57;16.70;99.90
14349;DHT22;7258;50.376;8.742;2023-08-01T04:48:59;16.60;99.90
14349;DHT22;7258;50.376;8.742;2023-08-01T04:51:02;16.70;99.90
14349;DHT22;7258;50.376;8.742;2023-08-01T04:53:05;16.70;99.90
14349;DHT22;7258;50.376;8.742;2023-08-01T04:55:09;16.70;99.90
14349;DHT22;7258;50.376;8.742;2023-08-01T04:57:15;16.70;99.90
14349;DHT22;7258;50.376;8.742;2023-08-01T04:59:18;16.70;99.90
14349;DHT22;7258;50.376;8.742;2023-08-01T05:01:21;16.70;99.90
14349;DHT22;7258;50.376;8.742;2023-08-01T05:03:24;16.70;99.90
14349;DHT22;7258;50.376;8.742;2023-08-01T05:05:27;16.70;99.90
14349;DHT22;7258;50.376;8.742;2023-08-01T05:07:30;16.70;99.90
14349;DHT22;7258;50.376;8.742;2023-08-01T05:09:33;16.70;99.90
14349;DHT22;7258;50.376;8.742;2023-08-01T05:11:37;16.70;99.90
14349;DHT22;7258;50.376;8.742;2023-08-01T05:13:40;16.80;99.90
14349;DHT22;7258;50.376;8.742;2023-08-01T05:15:44;16.80;99.90
14349;DHT22;7258;50.376;8.742;2023-08-01T05:17:49;16.80;99.90
14349;DHT22;7258;50.376;8.742;2023-08-01T05:19:54;16.80;99.90
14349;DHT22;7258;50.376;8.742;2023-08-01T05:21:59;16.80;99.90
14349;DHT22;7258;50.376;8.742;2023-08-01T05:24:02;16.80;99.90
14349;DHT22;7258;50.376;8.742;2023-08-01T05:26:05;16.80;99.90
14349;DHT22;7258;50.376;8.742;2023-08-01T05:28:14;16.80;99.90
14349;DHT22;7258;50.376;8.742;2023-08-01T05:30:17;16.80;99.90
14349;DHT22;7258;50.376;8.742;2023-08-01T05:32:19;16.80;99.90
14349;DHT22;7258;50.376;8.742;2023-08-01T05:34:22;16.80;99.90
14349;DHT22;7258;50.376;8.742;2023-08-01T05:36:25;16.80;99.90
14349;DHT22;7258;50.376;8.742;2023-08-01T05:38:28;16.80;99.90
14349;DHT22;7258;50.376;8.742;2023-08-01T05:40:31;16.80;99.90
14349;DHT22;7258;50.376;8.742;2023-08-01T05:42:37;16.80;99.90
14349;DHT22;7258;50.376;8.742;2023-08-01T05:44:51;16.80;99.90
14349;DHT22;7258;50.376;8.742;2023-08-01T05:46:58;16.80;99.90
14349;DHT22;7258;50.376;8.742;2023-08-01T05:49:06;16.70;99.90
14349;DHT22;7258;50.376;8.742;2023-08-01T05:51:17;16.70;99.90
14349;DHT22;7258;50.376;8.742;2023-08-01T05:53:37;16.70;99.90
14349;DHT22;7258;50.376;8.742;2023-08-01T05:55:46;16.70;99.90
14349;DHT22;7258;50.376;8.742;2023-08-01T05:57:52;16.70;99.90
14349;DHT22;7258;50.376;8.742;2023-08-01T06:00:08;16.70;99.90
14349;DHT22;7258;50.376;8.742;2023-08-01T06:02:12;16.60;99.90
14349;DHT22;7258;50.376;8.742;2023-08-01T06:04:15;16.60;99.90
14349;DHT22;7258;50.376;8.742;2023-08-01T06:06:18;16.50;99.90
14349;DHT22;7258;50.376;8.742;2023-08-01T06:08:23;16.50;99.90
14349;DHT22;7258;50.376;8.742;2023-08-01T06:10:32;16.40;99.90
14349;DHT22;7258;50.376;8.742;2023-08-01T06:12:36;16.40;99.90
14349;DHT22;7258;50.376;8.742;2023-08-01T06:14:52;16.40;99.90
14349;DHT22;7258;50.376;8.742;2023-08-01T06:17:19;16.40;99.90
14349;DHT22;7258;50.376;8.742;2023-08-01T06:19:31;16.40;99.90
14349;DHT22;7258;50.376;8.742;2023-08-01T06:21:38;16.30;99.90
14349;DHT22;7258;50.376;8.742;2023-08-01T06:23:41;16.30;99.90
14349;DHT22;7258;50.376;8.742;2023-08-01T06:25:47;16.20;99.90
14349;DHT22;7258;50.376;8.742;2023-08-01T06:27:51;16.20;99.90
14349;DHT22;7258;50.376;8.742;2023-08-01T06:29:54;16.20;99.90
14349;DHT22;7258;50.376;8.742;2023-08-01T06:31:59;16.10;99.90
14349;DHT22;7258;50.376;8.742;2023-08-01T06:34:02;16.10;99.90
14349;DHT22;7258;50.376;8.742;2023-08-01T06:36:06;15.90;99.90
14349;DHT22;7258;50.376;8.742;2023-08-01T06:38:12;15.90;99.90
14349;DHT22;7258;50.376;8.742;2023-08-01T06:40:33;15.80;99.90
14349;DHT22;7258;50.376;8.742;2023-08-01T06:42:51;15.80;99.90
14349;DHT22;7258;50.376;8.742;2023-08-01T06:45:09;15.90;99.90
14349;DHT22;7258;50.376;8.742;2023-08-01T06:47:41;16.00;99.90
14349;DHT22;7258;50.376;8.742;2023-08-01T06:50:01;16.10;99.90
14349;DHT22;7258;50.376;8.742;2023-08-01T06:52:19;16.10;99.90
14349;DHT22;7258;50.376;8.742;2023-08-01T06:54:44;15.90;99.90
14349;DHT22;7258;50.376;8.742;2023-08-01T06:57:02;16.00;99.90
14349;DHT22;7258;50.376;8.742;2023-08-01T06:59:11;16.00;99.90
14349;DHT22;7258;50.376;8.742;2023-08-01T07:01:33;15.90;99.90
14349;DHT22;7258;50.376;8.742;2023-08-01T07:03:51;16.00;99.90
14349;DHT22;7258;50.376;8.742;2023-08-01T07:05:58;16.10;99.90
14349;DHT22;7258;50.376;8.742;2023-08-01T07:08:10;16.10;99.90
14349;DHT22;7258;50.376;8.742;2023-08-01T07:10:18;16.20;99.90
14349;DHT22;7258;50.376;8.742;2023-08-01T07:12:24;16.30;99.90
14349;DHT22;7258;50.376;8.742;2023-08-01T07:14:31;16.30;99.90
14349;DHT22;7258;50.376;8.742;2023-08-01T07:16:48;16.40;99.90
14349;DHT22;7258;50.376;8.742;2023-08-01T07:19:06;16.50;99.90
14349;DHT22;7258;50.376;8.742;2023-08-01T07:21:20;16.50;99.90
14349;DHT22;7258;50.376;8.742;2023-08-01T07:23:26;16.60;99.90
14349;DHT22;7258;50.376;8.742;2023-08-01T07:25:29;16.70;99.90
14349;DHT22;7258;50.376;8.742;2023-08-01T07:27:32;16.80;99.90
14349;DHT22;7258;50.376;8.742;2023-08-01T07:29:38;16.80;99.90
14349;DHT22;7258;50.376;8.742;2023-08-01T07:31:44;16.90;99.90
14349;DHT22;7258;50.376;8.742;2023-08-01T07:33:55;17.00;99.90
14349;DHT22;7258;50.376;8.742;2023-08-01T07:36:00;17.10;99.90
14349;DHT22;7258;50.376;8.742;2023-08-01T07:38:08;17.20;99.90
14349;DHT22;7258;50.376;8.742;2023-08-01T07:40:12;17.30;99.90
14349;DHT22;7258;50.376;8.742;2023-08-01T07:42:13;17.30;99.90
14349;DHT22;7258;50.376;8.742;2023-08-01T07:44:20;17.30;99.90
14349;DHT22;7258;50.376;8.742;2023-08-01T07:46:26;17.20;99.90
14349;DHT22;7258;50.376;8.742;2023-08-01T07:48:27;17.20;99.90
14349;DHT22;7258;50.376;8.742;2023-08-01T07:50:31;17.20;99.90
14349;DHT22;7258;50.376;8.742;2023-08-01T07:52:35;17.10;99.90
14349;DHT22;7258;50.376;8.742;2023-08-01T07:54:37;17.10;99.90
14349;DHT22;7258;50.376;8.742;2023-08-01T07:56:42;17.00;99.90
14349;DHT22;7258;50.376;8.742;2023-08-01T07:58:48;17.00;99.90
14349;DHT22;7258;50.376;8.742;2023-08-01T08:00:51;17.00;99.90
14349;DHT22;7258;50.376;8.742;2023-08-01T08:02:54;17.10;99.90
14349;DHT22;7258;50.376;8.742;2023-08-01T08:05:00;17.20;99.90
14349;DHT22;7258;50.376;8.742;2023-08-01T08:07:03;17.30;99.90
14349;DHT22;7258;50.376;8.742;2023-08-01T08:09:08;17.40;99.90
14349;DHT22;7258;50.376;8.742;2023-08-01T08:11:11;17.60;99.90
14349;DHT22;7258;50.376;8.742;2023-08-01T08:13:14;17.70;99.90
14349;DHT22;7258;50.376;8.742;2023-08-01T08:15:17;17.70;99.90
14349;DHT22;7258;50.376;8.742;2023-08-01T08:17:21;17.80;99.90
14349;DHT22;7258;50.376;8.742;2023-08-01T08:19:24;17.90;99.90
14349;DHT22;7258;50.376;8.742;2023-08-01T08:21:27;18.00;99.90
14349;DHT22;7258;50.376;8.742;2023-08-01T08:23:30;18.10;99.90
14349;DHT22;7258;50.376;8.742;2023-08-01T08:25:37;18.20;99.90
14349;DHT22;7258;50.376;8.742;2023-08-01T08:27:40;18.20;99.90
14349;DHT22;7258;50.376;8.742;2023-08-01T08:29:46;18.20;99.90
14349;DHT22;7258;50.376;8.742;2023-08-01T08:31:49;18.30;99.90
14349;DHT22;7258;50.376;8.742;2023-08-01T08:33:52;18.40;99.90
14349;DHT22;7258;50.376;8.742;2023-08-01T08:35:55;18.40;99.90
14349;DHT22;7258;50.376;8.742;2023-08-01T08:38:02;18.50;99.90
14349;DHT22;7258;50.376;8.742;2023-08-01T08:40:06;18.60;99.90
14349;DHT22;7258;50.376;8.742;2023-08-01T08:42:11;18.60;99.90
14349;DHT22;7258;50.376;8.742;2023-08-01T08:44:15;18.60;99.90
14349;DHT22;7258;50.376;8.742;2023-08-01T08:46:19;18.70;99.90
14349;DHT22;7258;50.376;8.742;2023-08-01T08:48:24;18.70;99.90
14349;DHT22;7258;50.376;8.742;2023-08-01T08:50:29;18.70;99.90
14349;DHT22;7258;50.376;8.742;2023-08-01T08:52:33;18.80;99.90
14349;DHT22;7258;50.376;8.742;2023-08-01T08:54:38;18.90;99.90
14349;DHT22;7258;50.376;8.742;2023-08-01T08:56:43;18.90;99.90
14349;DHT22;7258;50.376;8.742;2023-08-01T08:58:48;19.00;99.90
14349;DHT22;7258;50.376;8.742;2023-08-01T09:00:51;19.00;99.90
14349;DHT22;7258;50.376;8.742;2023-08-01T09:02:53;19.10;99.90
14349;DHT22;7258;50.376;8.742;2023-08-01T09:04:57;19.20;99.90
14349;DHT22;7258;50.376;8.742;2023-08-01T09:07:02;19.30;99.90
14349;DHT22;7258;50.376;8.742;2023-08-01T09:09:10;19.50;99.90
14349;DHT22;7258;50.376;8.742;2023-08-01T09:11:12;19.70;99.90
14349;DHT22;7258;50.376;8.742;2023-08-01T09:13:15;19.60;99.90
14349;DHT22;7258;50.376;8.742;2023-08-01T09:15:19;19.70;99.90
14349;DHT22;7258;50.376;8.742;2023-08-01T09:17:22;19.60;99.90
14349;DHT22;7258;50.376;8.742;2023-08-01T09:19:25;19.60;99.90
14349;DHT22;7258;50.376;8.742;2023-08-01T09:21:32;19.60;99.90
14349;DHT22;7258;50.376;8.742;2023-08-01T09:23:36;19.60;99.90
14349;DHT22;7258;50.376;8.742;2023-08-01T09:25:39;19.60;99.90
14349;DHT22;7258;50.376;8.742;2023-08-01T09:27:42;19.60;99.90
14349;DHT22;7258;50.376;8.742;2023-08-01T09:29:45;19.70;99.90
14349;DHT22;7258;50.376;8.742;2023-08-01T09:31:49;19.90;99.90
14349;DHT22;7258;50.376;8.742;2023-08-01T09:33:52;20.30;99.90
14349;DHT22;7258;50.376;8.742;2023-08-01T09:35:55;20.40;99.90
14349;DHT22;7258;50.376;8.742;2023-08-01T09:38:00;20.50;99.90
14349;DHT22;7258;50.376;8.742;2023-08-01T09:40:06;20.50;99.90
14349;DHT22;7258;50.376;8.742;2023-08-01T09:42:10;20.40;99.90
14349;DHT22;7258;50.376;8.742;2023-08-01T09:44:15;20.40;99.90
14349;DHT22;7258;50.376;8.742;2023-08-01T09:46:18;20.40;99.90
14349;DHT22;7258;50.376;8.742;2023-08-01T09:48:27;20.70;99.90
14349;DHT22;7258;50.376;8.742;2023-08-01T09:50:30;20.80;99.90
14349;DHT22;7258;50.376;8.742;2023-08-01T09:52:33;20.60;99.90
14349;DHT22;7258;50.376;8.742;2023-08-01T09:54:35;20.40;99.90
14349;DHT22;7258;50.376;8.742;2023-08-01T09:56:41;20.30;99.90
14349;DHT22;7258;50.376;8.742;2023-08-01T09:58:47;20.10;99.90
14349;DHT22;7258;50.376;8.742;2023-08-01T10:00:50;19.90;99.90
14349;DHT22;7258;50.376;8.742;2023-08-01T10:03:00;19.70;99.90
14349;DHT22;7258;50.376;8.742;2023-08-01T10:05:06;19.10;99.90
14349;DHT22;7258;50.376;8.742;2023-08-01T10:07:17;18.40;99.90
14349;DHT22;7258;50.376;8.742;2023-08-01T10:12:29;17.30;99.90
14349;DHT22;7258;50.376;8.742;2023-08-01T10:14:44;17.10;99.90
14349;DHT22;7258;50.376;8.742;2023-08-01T10:16:51;17.00;99.90
14349;DHT22;7258;50.376;8.742;2023-08-01T10:19:12;16.90;99.90
14349;DHT22;7258;50.376;8.742;2023-08-01T10:21:32;17.00;99.90
14349;DHT22;7258;50.376;8.742;2023-08-01T10:23:36;17.00;99.90
14349;DHT22;7258;50.376;8.742;2023-08-01T10:25:39;17.00;99.90
14349;DHT22;7258;50.376;8.742;2023-08-01T10:27:56;17.10;99.90
14349;DHT22;7258;50.376;8.742;2023-08-01T10:30:00;17.20;99.90
14349;DHT22;7258;50.376;8.742;2023-08-01T10:32:06;17.30;99.90
14349;DHT22;7258;50.376;8.742;2023-08-01T10:34:13;17.70;99.90
14349;DHT22;7258;50.376;8.742;2023-08-01T10:36:18;18.20;99.90
14349;DHT22;7258;50.376;8.742;2023-08-01T10:38:23;18.30;99.90
14349;DHT22;7258;50.376;8.742;2023-08-01T10:40:33;17.90;99.90
14349;DHT22;7258;50.376;8.742;2023-08-01T10:42:40;17.70;99.90
14349;DHT22;7258;50.376;8.742;2023-08-01T10:44:45;17.60;99.90
14349;DHT22;7258;50.376;8.742;2023-08-01T10:46:49;18.00;99.90
14349;DHT22;7258;50.376;8.742;2023-08-01T10:48:53;18.20;99.90
14349;DHT22;7258;50.376;8.742;2023-08-01T10:50:56;18.70;99.90
14349;DHT22;7258;50.376;8.742;2023-08-01T10:53:04;19.20;99.90
14349;DHT22;7258;50.376;8.742;2023-08-01T10:55:09;19.30;99.90
14349;DHT22;7258;50.376;8.742;2023-08-01T10:57:15;19.50;99.90
14349;DHT22;7258;50.376;8.742;2023-08-01T10:59:18;19.80;99.90
14349;DHT22;7258;50.376;8.742;2023-08-01T11:01:21;19.80;99.90
14349;DHT22;7258;50.376;8.742;2023-08-01T11:03:34;19.80;99.90
14349;DHT22;7258;50.376;8.742;2023-08-01T11:05:37;19.80;99.90
14349;DHT22;7258;50.376;8.742;2023-08-01T11:07:40;19.80;99.90
14349;DHT22;7258;50.376;8.742;2023-08-01T11:09:43;19.70;99.90
14349;DHT22;7258;50.376;8.742;2023-08-01T11:11:49;19.80;99.90
14349;DHT22;7258;50.376;8.742;2023-08-01T11:13:53;19.90;99.90
14349;DHT22;7258;50.376;8.742;2023-08-01T11:15:58;19.80;99.90
14349;DHT22;7258;50.376;8.742;2023-08-01T11:18:02;19.60;99.90
14349;DHT22;7258;50.376;8.742;2023-08-01T11:20:06;19.50;99.90
14349;DHT22;7258;50.376;8.742;2023-08-01T11:22:10;19.50;99.90
14349;DHT22;7258;50.376;8.742;2023-08-01T11:24:13;19.40;99.90
14349;DHT22;7258;50.376;8.742;2023-08-01T11:26:16;19.40;99.90
14349;DHT22;7258;50.376;8.742;2023-08-01T11:28:22;19.70;99.90
14349;DHT22;7258;50.376;8.742;2023-08-01T11:30:30;19.90;99.90
14349;DHT22;7258;50.376;8.742;2023-08-01T11:32:34;20.10;99.90
14349;DHT22;7258;50.376;8.742;2023-08-01T11:34:40;20.00;99.90
14349;DHT22;7258;50.376;8.742;2023-08-01T11:36:46;20.20;99.90
14349;DHT22;7258;50.376;8.742;2023-08-01T11:38:49;20.50;99.90
14349;DHT22;7258;50.376;8.742;2023-08-01T11:40:52;21.00;99.90
14349;DHT22;7258;50.376;8.742;2023-08-01T11:42:56;21.40;99.90
14349;DHT22;7258;50.376;8.742;2023-08-01T11:45:12;21.60;99.90
14349;DHT22;7258;50.376;8.742;2023-08-01T11:47:17;21.70;99.90
14349;DHT22;7258;50.376;8.742;2023-08-01T11:49:20;21.60;99.90
14349;DHT22;7258;50.376;8.742;2023-08-01T11:51:23;21.80;99.90
14349;DHT22;7258;50.376;8.742;2023-08-01T11:53:28;21.80;99.90
14349;DHT22;7258;50.376;8.742;2023-08-01T11:55:34;21.70;99.90
14349;DHT22;7258;50.376;8.742;2023-08-01T11:57:38;21.40;99.90
14349;DHT22;7258;50.376;8.742;2023-08-01T11:59:46;21.40;99.90
14349;DHT22;7258;50.376;8.742;2023-08-01T12:01:51;21.40;99.90
14349;DHT22;7258;50.376;8.742;2023-08-01T12:03:55;21.50;99.90
14349;DHT22;7258;50.376;8.742;2023-08-01T12:06:04;21.40;99.90
14349;DHT22;7258;50.376;8.742;2023-08-01T12:08:10;21.30;99.90
14349;DHT22;7258;50.376;8.742;2023-08-01T12:10:13;21.60;99.90
14349;DHT22;7258;50.376;8.742;2023-08-01T12:12:16;22.10;99.90
14349;DHT22;7258;50.376;8.742;2023-08-01T12:14:19;22.60;99.90
14349;DHT22;7258;50.376;8.742;2023-08-01T12:16:22;22.70;99.90
14349;DHT22;7258;50.376;8.742;2023-08-01T12:18:28;22.80;99.90
14349;DHT22;7258;50.376;8.742;2023-08-01T12:20:34;22.50;99.90
14349;DHT22;7258;50.376;8.742;2023-08-01T12:22:37;22.30;99.90
14349;DHT22;7258;50.376;8.742;2023-08-01T12:24:39;22.00;99.90
14349;DHT22;7258;50.376;8.742;2023-08-01T12:26:42;21.60;99.90
14349;DHT22;7258;50.376;8.742;2023-08-01T12:28:46;21.20;99.90
14349;DHT22;7258;50.376;8.742;2023-08-01T12:30:49;21.20;99.90
14349;DHT22;7258;50.376;8.742;2023-08-01T12:32:53;21.10;99.90
14349;DHT22;7258;50.376;8.742;2023-08-01T12:34:57;21.00;99.90
14349;DHT22;7258;50.376;8.742;2023-08-01T12:37:00;20.90;99.90
14349;DHT22;7258;50.376;8.742;2023-08-01T12:39:03;20.90;99.90
14349;DHT22;7258;50.376;8.742;2023-08-01T12:41:12;20.80;99.90
14349;DHT22;7258;50.376;8.742;2023-08-01T12:43:15;20.90;99.90
14349;DHT22;7258;50.376;8.742;2023-08-01T12:45:18;21.30;99.90
14349;DHT22;7258;50.376;8.742;2023-08-01T12:47:20;21.40;99.90
14349;DHT22;7258;50.376;8.742;2023-08-01T12:49:23;21.70;99.90
14349;DHT22;7258;50.376;8.742;2023-08-01T12:51:27;22.00;99.90
14349;DHT22;7258;50.376;8.742;2023-08-01T12:53:30;22.00;99.90
14349;DHT22;7258;50.376;8.742;2023-08-01T12:55:33;22.20;99.90
14349;DHT22;7258;50.376;8.742;2023-08-01T12:57:36;22.40;99.90
14349;DHT22;7258;50.376;8.742;2023-08-01T12:59:39;22.50;99.90
14349;DHT22;7258;50.376;8.742;2023-08-01T13:01:42;22.20;99.90
14349;DHT22;7258;50.376;8.742;2023-08-01T13:03:45;21.80;99.90
14349;DHT22;7258;50.376;8.742;2023-08-01T13:05:48;21.30;99.90
14349;DHT22;7258;50.376;8.742;2023-08-01T13:07:52;20.90;99.90
14349;DHT22;7258;50.376;8.742;2023-08-01T13:09:55;20.60;99.90
14349;DHT22;7258;50.376;8.742;2023-08-01T13:11:57;20.30;99.90
14349;DHT22;7258;50.376;8.742;2023-08-01T13:14:02;20.20;99.90
14349;DHT22;7258;50.376;8.742;2023-08-01T13:16:05;20.10;99.90
14349;DHT22;7258;50.376;8.742;2023-08-01T13:18:09;20.10;99.90
14349;DHT22;7258;50.376;8.742;2023-08-01T13:20:12;20.20;99.90
14349;DHT22;7258;50.376;8.742;2023-08-01T13:22:15;20.40;99.90
14349;DHT22;7258;50.376;8.742;2023-08-01T13:24:19;20.70;99.90
14349;DHT22;7258;50.376;8.742;2023-08-01T13:26:22;20.90;99.90
14349;DHT22;7258;50.376;8.742;2023-08-01T13:28:25;21.40;99.90
14349;DHT22;7258;50.376;8.742;2023-08-01T13:30:27;21.80;99.90
14349;DHT22;7258;50.376;8.742;2023-08-01T13:32:30;22.00;99.90
14349;DHT22;7258;50.376;8.742;2023-08-01T13:34:33;22.20;99.90